createdAt,value
2018-11-26T00:03:04.845Z,22.87
2018-11-26T00:05:32.037Z,28.50
2018-11-26T00:07:59.192Z,23.30
2018-11-26T00:10:37.737Z,24.70
2018-11-26T00:13:05.209Z,25.10
2018-11-26T00:15:32.535Z,22.07
2018-11-26T00:17:59.729Z,24.20
2018-11-26T00:20:26.927Z,20.40
2018-11-26T00:22:54.133Z,20.83
2018-11-26T00:25:21.369Z,27.20
2018-11-26T00:27:48.596Z,23.20
2018-11-26T00:30:15.845Z,20.07
2018-11-26T00:32:43.067Z,19.43
2018-11-26T00:35:10.275Z,22.40
2018-11-26T00:37:37.418Z,18.07
2018-11-26T00:40:06.642Z,22.40
2018-11-26T00:42:33.829Z,21.00
2018-11-26T00:45:00.994Z,18.80
2018-11-26T00:47:28.174Z,21.80
2018-11-26T00:49:55.328Z,20.83
2018-11-26T00:52:22.546Z,19.53
2018-11-26T00:54:49.689Z,21.80
2018-11-26T00:57:16.893Z,20.37
2018-11-26T00:59:44.105Z,22.07
2018-11-26T01:02:13.933Z,18.70
2018-11-26T01:04:41.172Z,19.70
2018-11-26T01:07:08.441Z,20.70
2018-11-26T01:09:35.739Z,23.90
2018-11-26T01:12:02.946Z,16.97
2018-11-26T01:14:30.155Z,25.57
2018-11-26T01:16:57.383Z,22.37
2018-11-26T01:19:24.552Z,22.10
2018-11-26T01:21:51.725Z,25.90
2018-11-26T01:24:18.897Z,21.67
2018-11-26T01:26:46.065Z,26.50
2018-11-26T01:29:13.265Z,25.90
2018-11-26T01:31:40.464Z,21.37
2018-11-26T01:34:07.634Z,18.40
2018-11-26T01:36:34.808Z,22.23
2018-11-26T01:39:02.008Z,18.97
2018-11-26T01:41:29.166Z,24.40
2018-11-26T01:43:56.364Z,20.80
2018-11-26T01:46:23.581Z,24.07
2018-11-26T01:48:51.194Z,22.53
2018-11-26T01:51:18.368Z,16.53
2018-11-26T01:53:45.542Z,19.40
2018-11-26T01:56:12.882Z,24.47
2018-11-26T01:58:40.031Z,22.67
2018-11-26T02:01:07.253Z,21.03
2018-11-26T02:03:34.472Z,21.37
2018-11-26T02:06:01.740Z,22.50
2018-11-26T02:08:28.932Z,19.30
2018-11-26T02:10:56.079Z,24.30
2018-11-26T02:13:23.243Z,19.20
2018-11-26T02:15:50.510Z,20.37
2018-11-26T02:18:17.701Z,24.00
2018-11-26T02:20:44.848Z,17.93
2018-11-26T02:23:11.993Z,22.87
2018-11-26T02:25:39.215Z,22.33
2018-11-26T02:28:06.493Z,21.60
2018-11-26T02:30:33.708Z,20.90
2018-11-26T02:33:00.885Z,23.20
2018-11-26T02:35:28.084Z,21.20
2018-11-26T02:37:55.293Z,19.77
2018-11-26T02:40:26.656Z,27.60
2018-11-26T02:42:53.891Z,20.53
2018-11-26T02:45:21.145Z,21.27
2018-11-26T02:47:48.271Z,17.70
2018-11-26T02:50:15.464Z,27.33
2018-11-26T02:52:42.643Z,25.47
2018-11-26T02:55:09.877Z,21.73
2018-11-26T02:57:37.074Z,21.80
2018-11-26T03:00:08.288Z,22.33
2018-11-26T03:02:35.432Z,24.40
2018-11-26T03:05:03.357Z,18.50
2018-11-26T03:07:30.593Z,19.17
2018-11-26T03:09:57.741Z,23.23
2018-11-26T03:12:24.943Z,21.13
2018-11-26T03:14:52.093Z,20.37
2018-11-26T03:17:19.257Z,21.80
2018-11-26T03:19:46.473Z,21.77
2018-11-26T03:22:13.705Z,17.23
2018-11-26T03:24:40.929Z,17.40
2018-11-26T03:27:08.069Z,20.07
2018-11-26T03:29:35.261Z,19.93
2018-11-26T03:32:02.451Z,18.60
2018-11-26T03:34:29.657Z,21.03
2018-11-26T03:36:56.872Z,17.83
2018-11-26T03:39:24.080Z,20.00
2018-11-26T03:41:51.332Z,18.97
2018-11-26T03:44:18.533Z,20.23
2018-11-26T03:46:45.733Z,22.33
2018-11-26T03:49:12.909Z,18.90
2018-11-26T03:51:40.097Z,25.03
2018-11-26T03:54:07.245Z,19.77
2018-11-26T03:56:34.426Z,19.70
2018-11-26T03:59:01.686Z,22.17
2018-11-26T04:01:28.879Z,20.20
2018-11-26T04:03:56.084Z,20.63
2018-11-26T04:06:23.426Z,19.47
2018-11-26T04:08:50.666Z,19.23
2018-11-26T04:11:17.814Z,20.50
2018-11-26T04:13:45.056Z,19.57
2018-11-26T04:16:12.278Z,19.33
2018-11-26T04:18:39.409Z,23.13
2018-11-26T04:21:06.593Z,16.53
2018-11-26T04:23:33.772Z,22.67
2018-11-26T04:26:01.006Z,18.20
2018-11-26T04:28:28.190Z,23.73
2018-11-26T04:30:55.378Z,17.80
2018-11-26T04:33:22.550Z,18.33
2018-11-26T04:35:49.690Z,20.53
2018-11-26T04:38:16.818Z,18.70
2018-11-26T04:40:44.005Z,18.67
2018-11-26T04:43:11.142Z,19.40
2018-11-26T04:45:38.261Z,17.90
2018-11-26T04:48:05.537Z,18.90
2018-11-26T04:50:32.760Z,18.23
2018-11-26T04:52:59.938Z,23.43
2018-11-26T04:55:27.146Z,20.37
2018-11-26T04:57:54.307Z,20.93
2018-11-26T05:00:21.491Z,22.10
2018-11-26T05:02:48.681Z,21.60
2018-11-26T05:05:15.834Z,21.70
2018-11-26T05:07:43.047Z,27.43
2018-11-26T05:10:11.438Z,24.03
2018-11-26T05:12:38.666Z,22.67
2018-11-26T05:15:07.614Z,21.97
2018-11-26T05:17:34.805Z,22.40
2018-11-26T05:20:02.144Z,33.17
2018-11-26T05:22:29.337Z,23.50
2018-11-26T05:24:56.457Z,26.17
2018-11-26T05:27:23.708Z,23.03
2018-11-26T05:29:50.906Z,20.23
2018-11-26T05:32:18.090Z,21.10
2018-11-26T05:34:45.915Z,20.57
2018-11-26T05:37:13.133Z,21.40
2018-11-26T05:39:40.356Z,19.80
2018-11-26T05:42:07.486Z,19.17
2018-11-26T05:44:34.677Z,20.63
2018-11-26T05:47:01.868Z,25.87
2018-11-26T05:49:29.132Z,22.00
2018-11-26T05:51:56.277Z,19.60
2018-11-26T05:54:23.545Z,22.90
2018-11-26T05:56:50.664Z,18.67
2018-11-26T05:59:17.892Z,19.47
2018-11-26T06:01:45.108Z,19.83
2018-11-26T06:04:12.300Z,25.93
2018-11-26T06:06:39.551Z,21.30
2018-11-26T06:09:09.005Z,19.87
2018-11-26T06:11:37.078Z,16.50
2018-11-26T06:14:04.345Z,22.50
2018-11-26T06:16:31.573Z,16.77
2018-11-26T06:18:58.721Z,18.73
2018-11-26T06:21:25.852Z,20.37
2018-11-26T06:23:53.072Z,17.23
2018-11-26T06:26:20.267Z,15.60
2018-11-26T06:28:47.473Z,17.60
2018-11-26T06:31:14.684Z,19.57
2018-11-26T06:33:41.808Z,17.33
2018-11-26T06:36:09.032Z,15.93
2018-11-26T06:38:36.214Z,13.73
2018-11-26T06:41:03.488Z,15.20
2018-11-26T06:43:30.689Z,17.13
2018-11-26T06:45:57.867Z,17.80
2018-11-26T06:48:25.025Z,20.20
2018-11-26T06:50:52.206Z,16.93
2018-11-26T06:53:19.464Z,17.33
2018-11-26T06:55:46.641Z,19.07
2018-11-26T06:58:13.785Z,19.20
2018-11-26T07:00:41.133Z,20.30
2018-11-26T07:03:08.237Z,17.63
2018-11-26T07:05:35.367Z,15.80
2018-11-26T07:08:02.540Z,15.10
2018-11-26T07:10:29.709Z,17.90
2018-11-26T07:12:56.861Z,19.83
2018-11-26T07:15:24.025Z,20.27
2018-11-26T07:17:51.164Z,15.87
2018-11-26T07:20:20.126Z,21.37
2018-11-26T07:22:47.292Z,16.30
2018-11-26T07:25:15.703Z,18.27
2018-11-26T07:27:43.913Z,14.77
2018-11-26T07:30:13.357Z,17.70
2018-11-26T07:32:40.966Z,17.93
2018-11-26T07:35:08.357Z,19.53
2018-11-26T07:37:35.527Z,18.73
2018-11-26T07:40:03.158Z,19.30
2018-11-26T07:42:30.266Z,18.17
2018-11-26T07:44:57.441Z,14.67
2018-11-26T07:47:24.574Z,17.20
2018-11-26T07:49:51.706Z,18.07
2018-11-26T07:52:18.878Z,18.00
2018-11-26T07:54:46.063Z,18.67
2018-11-26T07:57:13.220Z,16.13
2018-11-26T07:59:40.399Z,16.87
2018-11-26T08:02:07.642Z,17.87
2018-11-26T08:04:34.823Z,19.33
2018-11-26T08:07:01.994Z,21.10
2018-11-26T08:09:29.169Z,17.30
2018-11-26T08:11:56.263Z,17.23
2018-11-26T08:14:23.421Z,20.43
2018-11-26T08:16:50.601Z,18.47
2018-11-26T08:19:17.778Z,17.33
2018-11-26T08:21:45.238Z,16.83
2018-11-26T08:24:12.153Z,21.00
2018-11-26T08:26:39.328Z,18.40
2018-11-26T08:29:06.511Z,20.43
2018-11-26T08:31:33.674Z,19.93
2018-11-26T08:34:00.844Z,20.30
2018-11-26T08:36:38.512Z,22.33
2018-11-26T08:39:11.138Z,18.97
2018-11-26T08:41:42.869Z,17.30
2018-11-26T08:44:17.350Z,22.87
2018-11-26T08:46:46.305Z,19.87
2018-11-26T08:49:17.280Z,24.40
2018-11-26T08:51:44.446Z,23.30
2018-11-26T08:54:11.661Z,24.63
2018-11-26T08:56:38.821Z,24.70
2018-11-26T08:59:06.182Z,21.40
2018-11-26T09:01:39.093Z,22.53
2018-11-26T09:05:09.251Z,25.30
2018-11-26T09:07:36.450Z,32.20
2018-11-26T09:10:05.711Z,22.30
2018-11-26T09:12:32.926Z,27.03
2018-11-26T09:15:00.159Z,20.90
2018-11-26T09:17:28.037Z,22.57
2018-11-26T09:19:55.201Z,24.37
2018-11-26T09:22:22.404Z,24.07
2018-11-26T09:24:49.509Z,22.90
2018-11-26T09:27:16.677Z,27.00
2018-11-26T09:29:43.929Z,24.47
2018-11-26T09:32:11.110Z,22.63
2018-11-26T09:34:38.825Z,21.33
2018-11-26T09:37:06.058Z,24.93
2018-11-26T09:39:33.209Z,25.47
2018-11-26T09:42:00.310Z,22.80
2018-11-26T09:44:27.402Z,20.30
2018-11-26T09:46:54.604Z,23.00
2018-11-26T09:49:21.794Z,23.30
2018-11-26T09:51:49.055Z,21.10
2018-11-26T09:54:16.250Z,26.43
2018-11-26T09:56:43.385Z,26.47
2018-11-26T09:59:11.501Z,22.50
2018-11-26T10:01:39.544Z,25.33
2018-11-26T10:04:07.508Z,22.40
2018-11-26T10:06:35.607Z,26.27
2018-11-26T10:09:03.574Z,22.83
2018-11-26T10:11:33.148Z,26.00
2018-11-26T10:14:00.633Z,21.37
2018-11-26T10:16:28.641Z,26.00
2018-11-26T10:18:56.241Z,20.43
2018-11-26T10:21:24.394Z,20.53
2018-11-26T10:23:52.604Z,24.13
2018-11-26T10:26:20.469Z,16.00
2018-11-26T10:28:47.872Z,19.90
2018-11-26T10:31:15.708Z,20.13
2018-11-26T10:33:43.083Z,17.73
2018-11-26T10:36:11.706Z,20.23
2018-11-26T10:38:38.893Z,21.00
2018-11-26T10:41:06.595Z,19.10
2018-11-26T10:43:33.821Z,17.30
2018-11-26T10:46:01.007Z,16.87
2018-11-26T10:48:28.443Z,19.70
2018-11-26T10:50:55.653Z,16.07
2018-11-26T10:53:22.842Z,19.77
2018-11-26T10:55:52.682Z,15.70
2018-11-26T10:58:20.509Z,16.40
2018-11-26T11:00:53.437Z,17.13
2018-11-26T11:03:21.297Z,20.80
2018-11-26T11:05:48.665Z,18.03
2018-11-26T11:08:15.829Z,18.37
2018-11-26T11:10:45.056Z,16.40
2018-11-26T11:13:12.281Z,15.77
2018-11-26T11:15:40.232Z,19.30
2018-11-26T11:18:08.080Z,19.80
2018-11-26T11:20:36.899Z,16.20
2018-11-26T11:23:04.441Z,18.60
2018-11-26T11:25:31.667Z,18.13
2018-11-26T11:27:58.883Z,20.83
2018-11-26T11:30:28.177Z,16.80
2018-11-26T11:32:55.871Z,18.27
2018-11-26T11:35:23.355Z,17.20
2018-11-26T11:37:51.734Z,18.40
2018-11-26T11:40:26.150Z,15.10
2018-11-26T11:42:54.137Z,21.10
2018-11-26T11:45:23.198Z,19.43
2018-11-26T11:47:52.329Z,14.33
2018-11-26T11:50:21.281Z,18.43
2018-11-26T11:52:48.821Z,17.63
2018-11-26T11:55:17.142Z,16.47
2018-11-26T11:57:44.351Z,17.83
2018-11-26T12:00:14.875Z,24.73
2018-11-26T12:02:42.434Z,24.93
2018-11-26T12:05:11.105Z,21.27
2018-11-26T12:07:38.313Z,20.13
2018-11-26T12:10:07.573Z,18.57
2018-11-26T12:12:35.895Z,24.17
2018-11-26T12:15:10.731Z,24.43
2018-11-26T12:17:37.931Z,24.40
2018-11-26T12:20:07.647Z,26.83
2018-11-26T12:22:34.786Z,24.83
2018-11-26T12:25:02.664Z,22.67
2018-11-26T12:27:29.890Z,29.10
2018-11-26T12:29:57.075Z,24.30
2018-11-26T12:32:24.255Z,27.97
2018-11-26T12:34:51.366Z,31.60
2018-11-26T12:37:18.597Z,30.07
2018-11-26T12:39:45.746Z,30.80
2018-11-26T12:42:12.953Z,32.30
2018-11-26T12:44:50.359Z,31.90
2018-11-26T12:47:17.544Z,35.20
2018-11-26T12:49:44.711Z,32.60
2018-11-26T12:52:11.859Z,39.00
2018-11-26T12:54:39.001Z,37.77
2018-11-26T12:57:06.335Z,32.97
2018-11-26T12:59:35.264Z,33.63
2018-11-26T13:02:02.435Z,39.50
2018-11-26T13:04:29.664Z,37.03
2018-11-26T13:06:57.188Z,36.90
2018-11-26T13:09:24.408Z,31.77
2018-11-26T13:11:51.624Z,37.03
2018-11-26T13:14:18.810Z,28.70
2018-11-26T13:16:47.383Z,36.03
2018-11-26T13:19:15.814Z,30.80
2018-11-26T13:21:42.935Z,31.20
2018-11-26T13:24:10.090Z,33.87
2018-11-26T13:26:37.761Z,41.70
2018-11-26T13:29:09.153Z,36.50
2018-11-26T13:31:37.429Z,30.47
2018-11-26T13:34:06.338Z,33.23
2018-11-26T13:36:33.598Z,38.77
2018-11-26T13:39:00.987Z,26.10
2018-11-26T13:41:29.016Z,31.33
2018-11-26T13:43:57.412Z,35.77
2018-11-26T13:46:24.579Z,32.53
2018-11-26T13:48:51.779Z,33.90
2018-11-26T13:51:20.151Z,33.60
2018-11-26T13:53:48.307Z,31.30
2018-11-26T13:56:15.463Z,33.77
2018-11-26T13:58:42.646Z,33.33
2018-11-26T14:01:13.838Z,36.43
2018-11-26T14:03:41.007Z,26.77
2018-11-26T14:06:10.134Z,32.00
2018-11-26T14:08:40.219Z,31.87
2018-11-26T14:11:07.510Z,37.67
2018-11-26T14:13:34.718Z,28.83
2018-11-26T14:16:01.928Z,28.67
2018-11-26T14:18:30.387Z,35.33
2018-11-26T14:20:58.755Z,35.60
2018-11-26T14:23:25.965Z,30.30
2018-11-26T14:25:53.147Z,30.27
2018-11-26T14:28:21.098Z,25.63
2018-11-26T14:30:49.139Z,33.50
2018-11-26T14:33:16.323Z,32.10
2018-11-26T14:35:43.598Z,30.10
2018-11-26T14:38:10.859Z,32.90
2018-11-26T14:40:40.857Z,32.63
2018-11-26T14:43:08.020Z,36.30
2018-11-26T14:45:35.214Z,36.50
2018-11-26T14:48:02.394Z,27.73
2018-11-26T14:50:29.641Z,22.07
2018-11-26T14:52:56.850Z,34.03
2018-11-26T14:55:30.049Z,31.33
2018-11-26T14:57:57.320Z,38.17
2018-11-26T15:00:24.492Z,31.47
2018-11-26T15:02:51.726Z,34.73
2018-11-26T15:05:18.921Z,27.93
2018-11-26T15:07:46.153Z,31.03
2018-11-26T15:10:17.416Z,32.40
2018-11-26T15:12:44.969Z,35.00
2018-11-26T15:15:13.670Z,32.13
2018-11-26T15:17:41.597Z,34.90
2018-11-26T15:20:11.415Z,38.73
2018-11-26T15:22:38.627Z,29.83
2018-11-26T15:25:07.952Z,32.30
2018-11-26T15:27:35.153Z,37.97
2018-11-26T15:30:06.326Z,33.30
2018-11-26T15:32:33.618Z,33.13
2018-11-26T15:35:00.873Z,35.50
2018-11-26T15:37:28.080Z,33.77
2018-11-26T15:39:55.730Z,26.57
2018-11-26T15:42:22.938Z,32.00
2018-11-26T15:44:50.199Z,31.93
2018-11-26T15:47:17.441Z,37.43
2018-11-26T15:49:44.751Z,28.30
2018-11-26T15:52:11.946Z,26.80
2018-11-26T15:54:39.184Z,30.90
2018-11-26T15:57:06.463Z,34.40
2018-11-26T15:59:33.635Z,26.07
2018-11-26T16:02:00.852Z,28.97
2018-11-26T16:04:28.019Z,34.70
2018-11-26T16:06:55.773Z,28.40
2018-11-26T16:09:22.945Z,33.00
2018-11-26T16:11:50.204Z,30.10
2018-11-26T16:14:17.431Z,32.70
2018-11-26T16:16:44.611Z,31.93
2018-11-26T16:19:11.799Z,31.10
2018-11-26T16:21:39.029Z,35.17
2018-11-26T16:24:06.351Z,33.97
2018-11-26T16:26:33.539Z,30.00
2018-11-26T16:29:00.728Z,31.80
2018-11-26T16:31:27.969Z,34.80
2018-11-26T16:33:55.488Z,35.50
2018-11-26T16:36:22.686Z,34.57
2018-11-26T16:38:52.709Z,34.03
2018-11-26T16:41:20.291Z,35.90
2018-11-26T16:43:48.345Z,29.27
2018-11-26T16:46:15.925Z,29.80
2018-11-26T16:48:43.604Z,24.63
2018-11-26T16:51:11.143Z,35.90
2018-11-26T16:53:38.837Z,25.80
2018-11-26T16:56:06.543Z,26.90
2018-11-26T16:58:34.212Z,33.13
2018-11-26T17:01:02.561Z,27.80
2018-11-26T17:03:33.039Z,32.93
2018-11-26T17:06:01.605Z,28.37
2018-11-26T17:08:29.976Z,30.93
2018-11-26T17:10:58.656Z,29.33
2018-11-26T17:13:29.739Z,38.00
2018-11-26T17:15:58.541Z,35.37
2018-11-26T17:18:26.104Z,34.03
2018-11-26T17:20:56.304Z,30.40
2018-11-26T17:23:23.747Z,28.13
2018-11-26T17:25:51.576Z,31.30
2018-11-26T17:28:19.421Z,31.30
2018-11-26T17:30:48.059Z,28.70
2018-11-26T17:33:15.387Z,36.00
2018-11-26T17:35:42.970Z,26.97
2018-11-26T17:38:10.173Z,30.10
2018-11-26T17:40:41.806Z,31.00
2018-11-26T17:43:11.773Z,28.17
2018-11-26T17:45:39.744Z,26.33
2018-11-26T17:48:07.597Z,28.13
2018-11-26T17:50:37.739Z,29.77
2018-11-26T17:53:10.380Z,27.57
2018-11-26T17:58:30.379Z,27.90
2018-11-26T18:01:00.532Z,32.67
2018-11-26T18:03:28.226Z,25.93
2018-11-26T18:05:56.040Z,31.07
2018-11-26T18:08:24.177Z,31.73
2018-11-26T18:10:52.032Z,35.53
2018-11-26T18:13:19.507Z,28.20
2018-11-26T18:15:47.031Z,28.20
2018-11-26T18:18:17.424Z,24.50
2018-11-26T18:20:45.965Z,30.40
2018-11-26T18:23:13.409Z,26.07
2018-11-26T18:25:42.013Z,26.03
2018-11-26T18:28:12.043Z,32.13
2018-11-26T18:30:41.769Z,33.60
2018-11-26T18:33:09.231Z,26.53
2018-11-26T18:35:37.085Z,31.10
2018-11-26T18:38:05.085Z,26.50
2018-11-26T18:40:32.383Z,36.37
2018-11-26T18:42:59.688Z,29.70
2018-11-26T18:45:27.090Z,26.97
2018-11-26T18:47:54.463Z,25.70
2018-11-26T18:50:22.174Z,30.27
2018-11-26T18:52:50.095Z,29.70
2018-11-26T18:55:17.573Z,32.10
2018-11-26T18:57:45.185Z,30.40
2018-11-26T19:00:31.055Z,29.67
2018-11-26T19:02:58.653Z,32.80
2018-11-26T19:05:25.961Z,25.53
2018-11-26T19:07:53.209Z,30.10
2018-11-26T19:10:24.149Z,26.53
2018-11-26T19:12:56.933Z,24.50
2018-11-26T19:15:30.682Z,29.50
2018-11-26T19:18:02.290Z,26.17
2018-11-26T19:20:29.587Z,28.47
2018-11-26T19:22:56.860Z,32.97
2018-11-26T19:25:24.534Z,26.30
2018-11-26T19:27:51.827Z,24.67
2018-11-26T19:30:23.086Z,32.93
2018-11-26T19:32:46.425Z,24.97
2018-11-26T19:35:14.649Z,26.80
2018-11-26T19:37:41.932Z,25.10
2018-11-26T19:40:10.686Z,29.67
2018-11-26T19:42:38.154Z,31.80
2018-11-26T19:45:11.510Z,34.90
2018-11-26T19:47:41.379Z,34.97
2018-11-26T19:50:11.836Z,30.30
2018-11-26T19:52:39.289Z,29.57
2018-11-26T19:55:10.152Z,24.13
2018-11-26T19:57:37.508Z,34.40
2018-11-26T20:00:10.064Z,27.30
2018-11-26T20:02:37.276Z,29.07
2018-11-26T20:05:08.669Z,28.87
2018-11-26T20:07:35.894Z,31.50
2018-11-26T20:10:03.259Z,28.37
2018-11-26T20:12:30.524Z,25.37
2018-11-26T20:14:57.729Z,23.57
2018-11-26T20:17:26.302Z,27.60
2018-11-26T20:19:53.594Z,21.40
2018-11-26T20:22:20.789Z,34.10
2018-11-26T20:24:48.248Z,25.03
2018-11-26T20:27:15.448Z,21.17
2018-11-26T20:29:42.802Z,24.77
2018-11-26T20:32:10.018Z,24.77
2018-11-26T20:34:37.247Z,23.00
2018-11-26T20:37:05.179Z,23.93
2018-11-26T20:39:32.439Z,20.73
2018-11-26T20:41:59.630Z,27.00
2018-11-26T20:44:26.817Z,23.23
2018-11-26T20:46:54.107Z,29.83
2018-11-26T20:49:21.362Z,30.50
2018-11-26T20:51:48.811Z,27.50
2018-11-26T20:54:16.030Z,24.73
2018-11-26T20:56:43.287Z,24.53
2018-11-26T20:59:10.534Z,23.30
2018-11-26T21:01:37.793Z,20.00
2018-11-26T21:04:05.696Z,23.07
2018-11-26T21:06:32.927Z,22.50
2018-11-26T21:09:00.134Z,29.37
2018-11-26T21:11:27.399Z,28.73
2018-11-26T21:13:54.671Z,26.10
2018-11-26T21:16:21.982Z,30.73
2018-11-26T21:18:49.166Z,26.30
2018-11-26T21:21:16.377Z,25.07
2018-11-26T21:23:43.707Z,28.40
2018-11-26T21:26:10.882Z,30.07
2018-11-26T21:28:38.112Z,25.60
2018-11-26T21:44:05.007Z,25.20
2018-11-26T21:46:32.200Z,30.63
2018-11-26T21:49:00.294Z,33.20
2018-11-26T21:51:27.487Z,38.40
2018-11-26T21:53:54.745Z,34.70
2018-11-26T21:56:22.064Z,35.23
2018-11-26T21:58:49.249Z,34.00
2018-11-26T22:01:16.499Z,37.37
2018-11-26T22:03:43.738Z,35.90
2018-11-26T22:06:10.998Z,37.30
2018-11-26T22:08:38.238Z,37.07
2018-11-26T22:11:05.572Z,32.90
2018-11-26T22:13:32.958Z,33.23
2018-11-26T22:16:00.244Z,40.47
2018-11-26T22:18:27.452Z,31.53
2018-11-26T22:20:54.663Z,34.13
2018-11-26T22:23:21.942Z,41.90
2018-11-26T22:25:49.221Z,31.23
2018-11-26T22:28:16.422Z,35.67
2018-11-26T22:30:43.643Z,32.97
2018-11-26T22:33:10.860Z,34.70
2018-11-26T22:35:38.109Z,37.43
2018-11-26T22:38:05.635Z,33.70
2018-11-26T22:40:32.821Z,41.47
2018-11-26T22:43:00.052Z,37.93
2018-11-26T22:45:29.975Z,38.67
2018-11-26T22:48:02.286Z,33.30
2018-11-26T22:50:29.526Z,39.13
2018-11-26T22:52:56.663Z,40.80
2018-11-26T22:55:23.863Z,35.57
2018-11-26T22:57:51.050Z,34.87
2018-11-26T23:00:30.259Z,40.77
2018-11-26T23:02:58.484Z,47.10
2018-11-26T23:05:25.794Z,45.30
2018-11-26T23:07:53.013Z,38.43
2018-11-26T23:10:20.238Z,35.10
2018-11-26T23:12:47.476Z,44.17
2018-11-26T23:15:15.304Z,39.40
2018-11-26T23:17:43.308Z,44.03
2018-11-26T23:20:14.410Z,39.80
2018-11-26T23:22:41.551Z,36.50
2018-11-26T23:25:16.455Z,42.63
2018-11-26T23:27:43.627Z,39.20
2018-11-26T23:30:17.903Z,38.77
2018-11-26T23:32:46.095Z,37.63
2018-11-26T23:35:13.289Z,40.30
2018-11-26T23:37:40.537Z,37.70
2018-11-26T23:40:09.919Z,35.63
2018-11-26T23:42:37.109Z,37.57
2018-11-26T23:45:07.311Z,40.20
2018-11-26T23:47:34.511Z,42.17
2018-11-26T23:50:01.686Z,35.73
2018-11-26T23:52:28.830Z,35.03
2018-11-26T23:54:56.045Z,43.67
2018-11-26T23:57:23.223Z,41.67
2018-11-26T23:59:50.405Z,38.77
